Time;durP1;ratioP1;P1;durP2;ratioP2;P2;SDS_P1;SDS_P2;PMS_P1;PMS_P2;Temp;Humidity;BMP_temperature;BMP_pressure;BME280_temperature;BME280_humidity;BME280_pressure;Samples;Min_cycle;Max_cycle;Signal;HPM_P1;HPM_P2
2022/06/20 00:02:19;;;;;;;7.33;2.90;;;12.60;20.10;;;;;;5052509;28;20202;-73
2022/06/20 00:04:46;;;;;;;5.40;3.60;;;12.50;17.50;;;;;;5052436;28;20416;-74
2022/06/20 00:07:12;;;;;;;2.40;2.30;;;12.50;15.30;;;;;;5051689;28;20498;-68
2022/06/20 00:09:38;;;;;;;5.30;2.80;;;12.60;16.90;;;;;;5052282;28;20400;-74
2022/06/20 00:12:05;;;;;;;4.43;2.60;;;12.50;17.80;;;;;;5049836;28;20815;-73
2022/06/20 00:14:30;;;;;;;2.80;1.87;;;12.50;20.60;;;;;;5056392;28;20368;-67
2022/06/20 00:16:56;;;;;;;4.50;2.47;;;12.50;20.30;;;;;;5055111;28;20753;-74
2022/06/20 00:19:22;;;;;;;2.70;2.00;;;12.60;25.50;;;;;;5056103;28;20187;-68
2022/06/20 00:21:47;;;;;;;3.13;2.50;;;12.50;21.00;;;;;;5056018;28;20230;-73
2022/06/20 00:24:13;;;;;;;4.73;2.03;;;12.50;19.10;;;;;;5055887;28;20209;-67
2022/06/20 00:26:39;;;;;;;7.93;2.90;;;12.50;17.50;;;;;;5036188;28;20185;-74
2022/06/20 00:29:07;;;;;;;5.10;2.97;;;12.50;21.60;;;;;;5055203;28;20198;-73
2022/06/20 00:31:34;;;;;;;4.50;3.00;;;12.60;33.10;;;;;;5037868;28;20182;-68
2022/06/20 00:34:00;;;;;;;2.50;2.27;;;12.60;33.70;;;;;;5038182;28;20749;-73
2022/06/20 00:36:26;;;;;;;2.70;2.30;;;12.60;30.70;;;;;;5055440;28;20772;-68
2022/06/20 00:38:54;;;;;;;5.80;2.73;;;12.60;31.00;;;;;;5055068;28;20433;-68
2022/06/20 00:41:24;;;;;;;4.30;2.53;;;12.60;34.70;;;;;;5038123;28;20403;-68
2022/06/20 00:43:52;;;;;;;3.97;2.70;;;12.60;34.70;;;;;;5037651;28;20928;-68
2022/06/20 00:46:35;;;;;;;9.07;2.57;;;12.60;34.70;;;;;;5054732;28;20448;-69
2022/06/20 00:49:06;;;;;;;6.03;3.53;;;12.60;34.70;;;;;;5055559;28;20511;-67
2022/06/20 00:51:39;;;;;;;4.53;3.13;;;12.60;34.70;;;;;;5055508;28;20721;-68
2022/06/20 00:54:13;;;;;;;2.73;2.50;;;12.60;34.80;;;;;;5055377;28;20987;-73
2022/06/20 00:57:28;;;;;;;3.43;2.33;;;12.70;34.80;;;;;;5054529;28;20423;-73
2022/06/20 01:00:12;;;;;;;2.30;2.10;;;12.70;34.80;;;;;;5025695;28;20456;-74
2022/06/20 01:02:42;;;;;;;3.20;2.50;;;12.70;35.00;;;;;;5055341;28;20509;-73
2022/06/20 01:05:24;;;;;;;4.47;2.47;;;12.70;40.30;;;;;;5036789;28;20770;-68
2022/06/20 01:08:01;;;;;;;3.30;2.70;;;12.70;43.90;;;;;;5054287;28;20409;-74
2022/06/20 01:10:32;;;;;;;5.03;2.60;;;12.70;44.60;;;;;;5055089;28;20417;-67
2022/06/20 01:13:03;;;;;;;3.20;2.83;;;12.70;39.50;;;;;;5037470;28;20427;-73
2022/06/20 01:15:36;;;;;;;5.13;2.83;;;12.60;35.20;;;;;;5054760;28;20416;-71
2022/06/20 01:18:03;;;;;;;6.60;2.97;;;12.60;34.70;;;;;;5053224;28;20457;-73
2022/06/20 01:20:36;;;;;;;5.57;2.80;;;12.50;34.60;;;;;;5054308;28;20420;-72
2022/06/20 01:23:13;;;;;;;4.57;2.77;;;12.40;34.50;;;;;;5054648;28;20506;-73
2022/06/20 01:26:05;;;;;;;9.07;3.03;;;12.40;34.70;;;;;;5054581;28;20417;-72
2022/06/20 01:28:38;;;;;;;3.57;3.27;;;12.50;45.70;;;;;;5023137;28;20928;-72
2022/06/20 01:31:06;;;;;;;2.40;2.20;;;12.50;53.90;;;;;;5037200;28;20448;-74
2022/06/20 01:33:32;;;;;;;5.43;3.23;;;12.60;55.70;;;;;;5053774;28;20425;-74
2022/06/20 01:38:44;;;;;;;7.80;2.67;;;12.50;52.50;;;;;;5053518;28;20433;-68
2022/06/20 01:43:59;;;;;;;8.53;3.80;;;12.40;59.00;;;;;;5054952;28;20496;-74
2022/06/20 01:46:28;;;;;;;5.30;2.23;;;12.40;62.80;;;;;;5054114;28;20401;-73
2022/06/20 01:48:59;;;;;;;4.40;3.63;;;12.40;60.90;;;;;;5036443;28;20468;-76
2022/06/20 01:51:52;;;;;;;7.70;2.70;;;12.40;61.90;;;;;;5053617;28;20413;-75
2022/06/20 01:54:21;;;;;;;2.50;2.30;;;12.30;56.20;;;;;;5054368;28;20759;-70
2022/06/20 01:56:48;;;;;;;4.17;2.20;;;12.30;52.20;;;;;;5052565;28;21077;-75
2022/06/20 01:59:19;;;;;;;4.73;3.20;;;12.20;47.00;;;;;;5036377;28;20400;-70
2022/06/20 02:01:46;;;;;;;3.40;2.47;;;12.20;35.10;;;;;;5054112;28;20471;-70
2022/06/20 02:04:15;;;;;;;4.80;2.33;;;12.10;34.10;;;;;;5053076;28;20917;-75
2022/06/20 02:06:42;;;;;;;4.00;2.77;;;12.00;34.00;;;;;;5052474;28;20396;-70
2022/06/20 02:09:09;;;;;;;8.20;2.70;;;11.90;26.90;;;;;;5036147;28;20483;-69
2022/06/20 02:11:38;;;;;;;4.83;1.97;;;11.80;25.00;;;;;;5054140;28;20382;-76
2022/06/20 02:14:33;;;;;;;3.23;2.90;;;11.80;33.30;;;;;;5053995;28;20416;-72
2022/06/20 02:17:04;;;;;;;4.50;3.07;;;11.80;27.10;;;;;;5037200;28;20440;-76
2022/06/20 02:19:34;;;;;;;8.80;2.67;;;11.70;25.60;;;;;;5052418;28;20445;-76
2022/06/20 02:22:05;;;;;;;2.60;2.13;;;11.60;17.00;;;;;;5053876;28;20415;-76
2022/06/20 02:24:41;;;;;;;4.93;2.70;;;11.60;17.40;;;;;;5053853;28;20405;-69
2022/06/20 02:27:14;;;;;;;4.43;2.30;;;11.60;10.70;;;;;;5052747;28;20400;-76
2022/06/20 02:29:40;;;;;;;4.80;2.97;;;11.50;10.60;;;;;;5053627;28;20458;-75
2022/06/20 02:32:11;;;;;;;3.70;2.67;;;11.50;13.50;;;;;;5052974;28;20455;-75
2022/06/20 02:34:38;;;;;;;3.83;2.67;;;11.50;18.10;;;;;;5053652;28;20458;-74
2022/06/20 02:37:09;;;;;;;4.80;3.20;;;11.60;19.60;;;;;;5034753;28;20427;-76
2022/06/20 02:39:38;;;;;;;8.97;2.63;;;11.60;21.70;;;;;;5035533;28;20483;-76
2022/06/20 02:42:09;;;;;;;9.60;3.00;;;11.60;21.60;;;;;;5035654;28;20748;-75
2022/06/20 02:44:35;;;;;;;5.20;2.63;;;11.60;19.10;;;;;;5053446;28;20376;-70
2022/06/20 02:47:07;;;;;;;3.70;2.30;;;11.50;20.50;;;;;;5052390;28;20446;-76
2022/06/20 02:49:35;;;;;;;3.67;3.07;;;11.50;20.10;;;;;;5053201;28;20449;-70
2022/06/20 02:52:03;;;;;;;3.00;2.80;;;11.50;20.50;;;;;;5033989;28;20404;-75
2022/06/20 02:54:33;;;;;;;10.83;2.40;;;11.50;22.50;;;;;;5053283;28;20372;-69
2022/06/20 02:57:11;;;;;;;3.93;2.53;;;11.50;20.60;;;;;;5034558;28;20431;-75
2022/06/20 02:59:51;;;;;;;3.93;2.80;;;11.50;20.80;;;;;;5053120;28;20384;-70
2022/06/20 03:02:22;;;;;;;4.23;2.93;;;11.30;16.00;;;;;;5053180;28;20948;-69
2022/06/20 03:04:47;;;;;;;3.80;2.67;;;11.40;21.00;;;;;;5035513;28;20423;-75
2022/06/20 03:07:27;;;;;;;5.53;2.80;;;11.40;23.60;;;;;;5052116;28;20412;-69
2022/06/20 03:10:01;;;;;;;5.20;2.90;;;11.40;24.10;;;;;;5033754;28;20198;-75
2022/06/20 03:12:27;;;;;;;4.67;3.07;;;11.40;24.80;;;;;;5035399;28;20394;-70
2022/06/20 03:14:58;;;;;;;3.40;2.97;;;11.50;26.60;;;;;;5035068;28;20388;-76
2022/06/20 03:17:24;;;;;;;7.70;3.07;;;11.50;26.00;;;;;;5051910;28;20575;-70
2022/06/20 03:19:55;;;;;;;2.83;2.63;;;11.50;28.60;;;;;;5052859;28;20479;-75
2022/06/20 03:22:26;;;;;;;4.83;3.57;;;11.50;30.90;;;;;;5035082;28;20399;-69
2022/06/20 03:24:53;;;;;;;3.37;2.97;;;11.60;33.70;;;;;;5034406;28;20406;-75
2022/06/20 03:27:32;;;;;;;5.70;3.37;;;11.70;35.20;;;;;;5034325;28;20437;-74
2022/06/20 03:30:19;;;;;;;3.80;3.47;;;11.70;44.50;;;;;;5052320;28;20524;-69
2022/06/20 03:32:45;;;;;;;16.13;2.83;;;11.80;46.30;;;;;;5052845;28;20387;-76
2022/06/20 03:35:11;;;;;;;7.00;3.00;;;11.80;53.90;;;;;;5035234;28;20504;-75
2022/06/20 03:37:37;;;;;;;3.13;2.93;;;11.90;56.80;;;;;;5034058;28;20480;-70
2022/06/20 03:40:04;;;;;;;4.30;3.90;;;11.90;66.80;;;;;;5052693;28;20175;-73
2022/06/20 03:42:30;;;;;;;7.60;3.57;;;12.00;69.30;;;;;;5051947;28;20495;-76
2022/06/20 03:44:58;;;;;;;11.83;4.00;;;12.00;73.20;;;;;;5052397;28;20488;-70
2022/06/20 03:47:33;;;;;;;6.70;3.50;;;12.00;71.70;;;;;;5053098;28;20213;-73
2022/06/20 03:50:10;;;;;;;6.83;4.13;;;12.00;77.00;;;;;;5056605;28;20469;-76
2022/06/20 03:52:47;;;;;;;3.07;2.87;;;12.00;77.20;;;;;;5056709;28;20454;-75
2022/06/20 03:55:25;;;;;;;7.93;3.67;;;12.10;78.10;;;;;;5056738;28;20415;-73
2022/06/20 03:58:03;;;;;;;3.47;3.27;;;12.00;72.30;;;;;;5054428;28;20898;-73
2022/06/20 04:00:58;;;;;;;4.90;3.13;;;12.00;74.30;;;;;;5056532;28;20457;-70
2022/06/20 04:03:38;;;;;;;6.63;3.17;;;12.10;82.10;;;;;;5037879;28;20445;-72
2022/06/20 04:06:11;;;;;;;3.13;2.93;;;12.20;82.10;;;;;;5056159;28;20379;-72
2022/06/20 04:12:00;;;;;;;4.70;3.20;;;12.20;82.10;;;;;;5056159;28;20383;-67
2022/06/20 04:14:38;;;;;;;7.57;4.30;;;12.30;82.20;;;;;;5055213;28;20430;-73
2022/06/20 04:20:24;;;;;;;5.77;3.93;;;12.40;82.20;;;;;;5042966;28;20936;-74
2022/06/20 04:22:53;;;;;;;5.50;3.47;;;12.50;82.40;;;;;;5037557;28;21111;-66
2022/06/20 04:25:51;;;;;;;6.63;3.30;;;12.50;82.30;;;;;;5056093;28;20710;-66
2022/06/20 04:28:22;;;;;;;6.80;4.10;;;12.40;82.20;;;;;;5037510;28;20436;-66
2022/06/20 04:31:36;;;;;;;10.30;3.57;;;12.50;82.40;;;;;;5054550;28;20427;-67
2022/06/20 04:34:21;;;;;;;4.57;3.80;;;12.60;82.50;;;;;;5049195;28;20541;-69
2022/06/20 04:37:04;;;;;;;5.07;3.30;;;12.70;82.50;;;;;;5036788;28;20452;-68
2022/06/20 04:39:39;;;;;;;5.10;3.60;;;12.80;82.60;;;;;;5055718;28;20421;-73
2022/06/20 04:42:17;;;;;;;3.53;2.77;;;12.80;75.30;;;;;;5055174;28;20376;-67
2022/06/20 04:44:57;;;;;;;3.37;3.07;;;12.80;71.60;;;;;;5037897;28;20417;-72
2022/06/20 04:47:32;;;;;;;3.53;2.70;;;12.80;65.90;;;;;;5035860;28;20968;-67
2022/06/20 04:49:58;;;;;;;5.87;3.67;;;12.80;66.80;;;;;;5037615;28;20448;-67
2022/06/20 04:52:27;;;;;;;10.57;3.53;;;12.90;73.30;;;;;;5037362;28;20388;-66
2022/06/20 04:54:55;;;;;;;6.50;3.40;;;13.00;74.80;;;;;;5055337;28;20510;-70
2022/06/20 04:57:27;;;;;;;8.43;4.03;;;13.10;76.90;;;;;;5054587;28;20423;-68
2022/06/20 05:00:03;;;;;;;6.83;2.40;;;13.20;76.20;;;;;;5035713;28;20433;-66
2022/06/20 05:02:29;;;;;;;4.80;3.30;;;13.30;71.40;;;;;;5054114;28;20407;-66
2022/06/20 05:04:58;;;;;;;2.77;2.57;;;13.30;53.20;;;;;;5055195;28;20389;-66
2022/06/20 05:07:30;;;;;;;6.20;2.30;;;13.10;51.40;;;;;;5054382;28;20413;-72
2022/06/20 05:10:06;;;;;;;7.03;3.60;;;13.10;54.80;;;;;;5035460;28;20456;-72
2022/06/20 05:12:40;;;;;;;3.50;3.20;;;13.20;55.00;;;;;;5037811;28;20437;-73
2022/06/20 05:15:14;;;;;;;3.90;2.90;;;13.10;49.30;;;;;;5055040;28;20371;-72
2022/06/20 05:17:41;;;;;;;10.60;3.50;;;13.10;55.60;;;;;;5052397;28;20780;-67
2022/06/20 05:20:19;;;;;;;3.63;3.20;;;13.10;50.00;;;;;;5054823;28;20392;-74
2022/06/20 05:22:53;;;;;;;3.43;3.00;;;13.10;56.10;;;;;;5054876;28;20871;-67
2022/06/20 05:25:22;;;;;;;3.90;3.30;;;13.00;54.40;;;;;;5054991;28;20785;-73
2022/06/20 05:28:19;;;;;;;5.13;2.93;;;13.10;64.00;;;;;;5053945;28;20922;-73
2022/06/20 05:30:46;;;;;;;4.97;3.23;;;13.20;65.20;;;;;;5037377;28;20930;-69
2022/06/20 05:33:34;;;;;;;8.03;3.60;;;13.20;64.20;;;;;;5054763;28;20418;-74
2022/06/20 05:36:07;;;;;;;5.87;3.10;;;13.20;64.20;;;;;;5054145;28;20490;-67
2022/06/20 05:38:41;;;;;;;4.50;3.37;;;13.30;61.50;;;;;;5053600;28;20399;-67
2022/06/20 05:41:10;;;;;;;3.53;3.07;;;13.30;52.70;;;;;;5036716;28;20427;-67
2022/06/20 05:43:36;;;;;;;4.77;3.70;;;13.20;49.50;;;;;;5054528;28;20376;-67
2022/06/20 05:46:06;;;;;;;5.70;3.90;;;13.30;48.20;;;;;;5036649;28;20380;-70
2022/06/20 05:48:44;;;;;;;4.90;3.37;;;13.30;49.30;;;;;;5051445;28;20443;-74
2022/06/20 05:51:14;;;;;;;13.90;3.80;;;13.30;53.50;;;;;;5054457;28;20938;-66
2022/06/20 05:53:52;;;;;;;5.37;3.13;;;13.40;59.70;;;;;;5053466;28;20484;-67
2022/06/20 05:56:31;;;;;;;7.03;5.20;;;13.50;66.00;;;;;;5053887;28;20423;-68
2022/06/20 05:58:59;;;;;;;5.73;3.73;;;13.70;71.50;;;;;;5054109;28;20400;-67
2022/06/20 06:01:30;;;;;;;4.30;3.23;;;13.80;72.60;;;;;;5054278;28;20471;-74
2022/06/20 06:04:20;;;;;;;7.83;3.00;;;13.90;72.90;;;;;;5052999;28;20498;-73
2022/06/20 06:06:50;;;;;;;4.80;3.10;;;14.00;73.00;;;;;;5053157;28;20431;-67
2022/06/20 06:09:25;;;;;;;9.13;3.07;;;14.10;71.90;;;;;;5054055;28;20468;-67
2022/06/20 06:12:04;;;;;;;5.27;3.27;;;14.10;54.00;;;;;;5053375;28;20446;-71
2022/06/20 06:14:53;;;;;;;6.97;3.13;;;14.10;36.30;;;;;;5053933;28;20397;-73
2022/06/20 06:17:34;;;;;;;3.70;2.80;;;14.00;16.60;;;;;;5035186;28;20493;-66
2022/06/20 06:20:04;;;;;;;5.07;2.10;;;14.10;18.30;;;;;;5052904;28;20452;-66
2022/06/20 06:22:34;;;;;;;8.10;4.53;;;14.20;18.00;;;;;;5053835;28;20805;-73
2022/06/20 06:25:23;;;;;;;9.97;3.73;;;14.30;13.00;;;;;;5053677;28;20398;-74
2022/06/20 06:27:53;;;;;;;5.73;3.33;;;14.30;1.00;;;;;;5052284;28;20409;-66
2022/06/20 06:30:34;;;;;;;8.13;3.23;;;14.30;1.00;;;;;;5053572;28;20898;-72
2022/06/20 06:33:07;;;;;;;6.87;3.10;;;14.40;5.50;;;;;;5053761;28;20466;-66
2022/06/20 06:35:38;;;;;;;4.00;2.87;;;14.40;1.00;;;;;;5053622;28;20398;-66
2022/06/20 06:38:16;;;;;;;8.87;3.80;;;14.40;1.00;;;;;;5049606;28;21019;-73
2022/06/20 06:40:48;;;;;;;4.07;3.70;;;14.40;1.00;;;;;;5033606;28;20488;-74
2022/06/20 06:43:37;;;;;;;4.67;2.87;;;14.30;1.00;;;;;;5033514;28;20400;-67
2022/06/20 06:46:06;;;;;;;5.33;3.37;;;14.30;1.00;;;;;;5032895;28;20441;-68
2022/06/20 06:48:48;;;;;;;7.30;3.93;;;14.30;1.00;;;;;;5031442;28;20532;-67
2022/06/20 06:51:24;;;;;;;5.40;3.60;;;14.40;1.00;;;;;;5040482;28;20551;-66
2022/06/20 06:53:58;;;;;;;5.00;3.17;;;14.50;1.00;;;;;;5053385;28;20924;-72
2022/06/20 06:56:32;;;;;;;8.40;4.20;;;14.50;1.00;;;;;;5052874;28;20614;-65
2022/06/20 06:59:41;;;;;;;4.53;3.80;;;14.50;1.00;;;;;;5053069;28;20480;-68
2022/06/20 07:02:22;;;;;;;6.00;4.67;;;14.50;1.00;;;;;;4956303;28;20420;-73
2022/06/20 07:04:56;;;;;;;4.40;3.27;;;14.40;1.00;;;;;;5026366;28;20414;-66
2022/06/20 07:07:46;;;;;;;5.43;3.30;;;14.50;1.00;;;;;;5050847;28;20459;-66
2022/06/20 07:10:48;;;;;;;6.60;3.33;;;14.60;1.00;;;;;;5052979;28;20421;-74
2022/06/20 07:13:22;;;;;;;5.63;3.30;;;14.70;1.00;;;;;;5035675;28;20429;-66
2022/06/20 07:15:53;;;;;;;4.23;3.30;;;14.70;1.00;;;;;;5053059;28;20886;-66
2022/06/20 07:18:42;;;;;;;9.40;4.53;;;14.80;1.00;;;;;;5051942;28;20469;-73
2022/06/20 07:21:12;;;;;;;10.20;3.70;;;14.80;1.00;;;;;;5052494;28;20398;-69
2022/06/20 07:23:38;;;;;;;3.23;2.93;;;14.90;1.00;;;;;;5050094;28;20425;-66
2022/06/20 07:26:04;;;;;;;8.13;2.30;;;15.10;1.00;;;;;;5033295;28;21001;-70
2022/06/20 07:28:47;;;;;;;7.17;2.20;;;15.30;1.00;;;;;;5051955;28;20492;-73
2022/06/20 07:31:24;;;;;;;6.07;2.33;;;15.40;1.00;;;;;;5052745;28;20460;-71
2022/06/20 07:34:15;;;;;;;3.33;1.77;;;15.40;1.00;;;;;;5052922;28;20580;-73
2022/06/20 07:36:47;;;;;;;6.67;2.00;;;15.60;99.90;;;;;;5045778;28;20848;-71
2022/06/20 07:39:42;;;;;;;4.93;2.27;;;15.70;99.90;;;;;;5051964;28;20425;-68
2022/06/20 07:42:16;;;;;;;1.40;1.30;;;15.10;99.90;;;;;;5040475;28;21004;-67
2022/06/20 07:45:11;;;;;;;2.50;1.50;;;14.70;99.90;;;;;;5033017;28;20416;-67
2022/06/20 07:47:45;;;;;;;2.27;1.93;;;14.30;99.90;;;;;;5040142;28;20426;-67
2022/06/20 07:50:19;;;;;;;2.43;1.60;;;14.10;99.90;;;;;;5051645;28;20427;-68
2022/06/20 07:53:04;;;;;;;1.63;1.53;;;14.00;99.90;;;;;;5052714;28;20383;-76
2022/06/20 07:55:32;;;;;;;1.70;1.60;;;13.80;1.00;;;;;;5052610;28;20565;-70
2022/06/20 07:58:35;;;;;;;3.47;1.60;;;13.80;1.00;;;;;;5050988;28;20453;-72
2022/06/20 08:01:19;;;;;;;1.87;1.73;;;13.90;1.00;;;;;;5031580;28;20805;-76
2022/06/20 08:04:04;;;;;;;2.03;1.70;;;13.90;1.00;;;;;;5052494;28;20417;-68
2022/06/20 08:06:56;;;;;;;1.77;1.67;;;13.90;1.00;;;;;;5033724;28;20417;-70
2022/06/20 08:09:53;;;;;;;3.00;1.60;;;14.00;1.00;;;;;;5041072;28;20448;-76
2022/06/20 08:12:29;;;;;;;3.17;1.63;;;14.00;1.00;;;;;;5042577;28;20437;-76
2022/06/20 08:15:11;;;;;;;1.70;1.60;;;14.00;1.00;;;;;;5052037;28;20420;-75
2022/06/20 08:17:37;;;;;;;1.83;1.40;;;14.10;1.00;;;;;;5051004;28;20435;-76
2022/06/20 08:20:04;;;;;;;1.90;1.80;;;14.00;1.00;;;;;;5034495;28;20487;-69
2022/06/20 08:22:37;;;;;;;3.43;2.20;;;14.00;1.00;;;;;;5052325;28;20394;-76
2022/06/20 08:25:08;;;;;;;1.73;1.53;;;14.00;1.00;;;;;;5051120;28;20451;-77
2022/06/20 08:27:43;;;;;;;2.50;1.90;;;14.00;1.00;;;;;;5051352;28;20492;-75
2022/06/20 08:30:12;;;;;;;1.60;1.50;;;14.00;1.00;;;;;;5052311;28;20470;-69
2022/06/20 08:33:02;;;;;;;1.70;1.43;;;14.10;1.00;;;;;;5052604;28;20426;-68
2022/06/20 08:35:39;;;;;;;1.83;1.73;;;14.10;1.00;;;;;;5055401;28;20882;-71
2022/06/20 08:38:34;;;;;;;2.33;1.40;;;14.20;1.00;;;;;;5054798;28;20952;-76
2022/06/20 08:41:18;;;;;;;2.97;1.93;;;14.20;1.00;;;;;;5053850;28;20429;-76
2022/06/20 08:43:49;;;;;;;1.83;1.70;;;14.20;1.00;;;;;;5055686;28;20963;-77
2022/06/20 08:46:28;;;;;;;1.80;1.40;;;14.10;1.00;;;;;;5055906;28;20484;-76
2022/06/20 08:49:31;;;;;;;3.93;2.03;;;14.10;1.00;;;;;;5056382;28;20519;-70
2022/06/20 08:52:29;;;;;;;3.33;2.27;;;14.10;1.00;;;;;;5013659;28;20762;-69
2022/06/20 08:55:25;;;;;;;1.83;1.73;;;14.20;1.00;;;;;;5055077;28;20400;-75
2022/06/20 08:57:59;;;;;;;3.93;1.97;;;14.30;1.00;;;;;;5053059;28;20450;-76
2022/06/20 09:00:35;;;;;;;1.70;1.60;;;14.40;1.00;;;;;;5055342;28;20499;-74
2022/06/20 09:03:24;;;;;;;2.20;1.87;;;14.40;1.00;;;;;;5055283;28;20412;-75
2022/06/20 09:05:55;;;;;;;2.80;2.00;;;14.40;1.00;;;;;;5055253;28;20397;-67
2022/06/20 09:08:21;;;;;;;2.13;1.80;;;14.50;1.00;;;;;;5054186;28;20433;-75
2022/06/20 09:10:46;;;;;;;2.00;1.80;;;14.80;1.00;;;;;;5053618;28;20436;-67
2022/06/20 09:13:15;;;;;;;2.23;1.33;;;15.00;1.00;;;;;;5036666;28;20568;-74
2022/06/20 09:16:05;;;;;;;3.73;2.20;;;15.20;1.00;;;;;;5055145;28;20174;-68
2022/06/20 09:18:37;;;;;;;1.30;1.20;;;15.40;99.90;;;;;;5054006;28;20433;-76
2022/06/20 09:21:26;;;;;;;1.87;1.77;;;15.70;99.90;;;;;;5054956;28;20409;-68
2022/06/20 09:24:25;;;;;;;4.40;2.00;;;16.00;99.90;;;;;;5053759;28;20390;-75
2022/06/20 09:27:09;;;;;;;2.33;2.13;;;16.20;99.90;;;;;;5054158;28;20905;-67
2022/06/20 09:29:53;;;;;;;4.30;1.97;;;16.40;99.90;;;;;;5054193;28;20459;-67
2022/06/20 09:32:22;;;;;;;2.33;1.53;;;16.90;99.90;;;;;;5036830;28;20380;-75
2022/06/20 09:35:06;;;;;;;2.43;1.43;;;17.30;99.90;;;;;;5054935;28;20484;-74
2022/06/20 09:37:59;;;;;;;2.00;1.80;;;17.10;99.90;;;;;;5053458;28;20897;-69
2022/06/20 09:40:44;;;;;;;2.40;2.20;;;16.50;99.90;;;;;;5054482;28;20953;-67
2022/06/20 09:43:18;;;;;;;1.53;1.37;;;15.50;99.90;;;;;;5054565;28;20393;-72
2022/06/20 09:46:21;;;;;;;1.40;1.30;;;14.80;99.90;;;;;;5053922;28;20380;-71
2022/06/20 09:49:02;;;;;;;1.60;1.30;;;14.20;99.90;;;;;;5053404;28;20479;-65
2022/06/20 09:51:46;;;;;;;2.53;1.33;;;13.90;99.90;;;;;;5035913;28;20412;-71
2022/06/20 09:54:24;;;;;;;2.03;1.93;;;13.70;99.90;;;;;;5034469;28;20410;-72
2022/06/20 09:56:56;;;;;;;2.83;1.70;;;13.60;99.90;;;;;;5033529;28;20423;-66
2022/06/20 09:59:30;;;;;;;1.80;1.67;;;13.60;99.90;;;;;;5034430;28;20398;-66
2022/06/20 10:02:12;;;;;;;7.07;1.83;;;13.70;99.90;;;;;;5034295;28;20419;-72
2022/06/20 10:05:06;;;;;;;3.10;2.00;;;13.70;99.90;;;;;;5034244;28;20405;-72
2022/06/20 10:07:56;;;;;;;2.93;2.40;;;13.90;99.90;;;;;;5047940;28;20465;-66
2022/06/20 10:10:33;;;;;;;2.40;2.20;;;14.80;99.90;;;;;;5054002;28;20372;-71
2022/06/20 10:13:27;;;;;;;2.50;1.80;;;15.90;1.00;;;;;;5053989;28;20396;-65
2022/06/20 10:16:11;;;;;;;2.80;1.90;;;16.30;99.90;;;;;;5053889;28;20801;-72
2022/06/20 10:18:40;;;;;;;1.67;1.50;;;16.40;99.90;;;;;;5053089;28;20472;-73
2022/06/20 10:21:28;;;;;;;2.10;1.90;;;16.30;99.90;;;;;;5051018;28;20433;-73
2022/06/20 10:24:15;;;;;;;3.47;1.97;;;16.40;99.90;;;;;;5053816;28;20400;-66
2022/06/20 10:27:18;;;;;;;1.80;1.67;;;16.30;99.90;;;;;;5052207;28;20540;-73
2022/06/20 10:30:05;;;;;;;2.37;2.17;;;16.30;99.90;;;;;;5053578;28;20455;-66
2022/06/20 10:32:34;;;;;;;3.27;2.00;;;16.90;99.90;;;;;;5035985;28;20471;-73
2022/06/20 10:34:59;;;;;;;2.30;2.10;;;17.40;99.90;;;;;;5052339;28;20509;-73
2022/06/20 10:37:30;;;;;;;2.23;1.80;;;18.00;99.90;;;;;;5052689;28;21044;-75
2022/06/20 10:40:14;;;;;;;3.90;2.20;;;18.50;99.90;;;;;;5053476;28;20182;-76
2022/06/20 10:42:58;;;;;;;1.70;1.43;;;18.90;99.90;;;;;;5053495;28;20785;-66
2022/06/20 10:45:27;;;;;;;2.33;2.00;;;19.30;99.90;;;;;;5052927;28;20827;-65
2022/06/20 10:48:04;;;;;;;3.37;2.77;;;19.10;99.90;;;;;;5050418;28;20433;-65
2022/06/20 10:50:50;;;;;;;2.00;1.90;;;18.70;99.90;;;;;;5053395;28;20732;-68
2022/06/20 10:53:26;;;;;;;3.70;2.10;;;18.10;99.90;;;;;;5053259;28;20774;-76
2022/06/20 10:56:16;;;;;;;2.20;1.87;;;17.90;99.90;;;;;;5052939;28;20504;-75
2022/06/20 10:59:09;;;;;;;3.50;2.30;;;17.50;99.90;;;;;;5034570;28;20524;-68
2022/06/20 11:01:40;;;;;;;4.77;2.67;;;17.10;99.90;;;;;;5051916;28;20952;-69
2022/06/20 11:04:31;;;;;;;3.77;2.30;;;16.80;99.90;;;;;;5052674;28;20392;-67
2022/06/20 11:07:11;;;;;;;3.90;2.53;;;17.60;99.90;;;;;;5052234;28;20394;-74
2022/06/20 11:10:00;;;;;;;2.60;2.27;;;18.60;99.90;;;;;;5053073;28;20412;-76
2022/06/20 11:12:40;;;;;;;5.90;2.20;;;19.60;99.90;;;;;;5053034;28;20936;-74
2022/06/20 11:15:19;;;;;;;2.53;1.87;;;20.60;99.90;;;;;;5051958;28;20803;-73
2022/06/20 11:18:09;;;;;;;4.33;2.30;;;20.50;99.90;;;;;;5037720;28;20457;-74
2022/06/20 11:20:50;;;;;;;2.07;1.60;;;20.20;99.90;;;;;;5052481;28;20441;-73
2022/06/20 11:23:31;;;;;;;2.90;1.77;;;20.30;99.90;;;;;;5052485;28;20504;-73
2022/06/20 11:26:11;;;;;;;2.70;1.63;;;20.20;99.90;;;;;;5053014;28;20406;-75
2022/06/20 11:28:40;;;;;;;2.33;2.13;;;19.70;99.90;;;;;;5052049;28;20431;-64
2022/06/20 11:31:31;;;;;;;5.57;2.33;;;19.30;99.90;;;;;;5051620;28;20417;-63
2022/06/20 11:34:41;;;;;;;1.70;1.53;;;18.70;99.90;;;;;;5052874;28;20882;-65
2022/06/20 11:37:21;;;;;;;2.23;2.03;;;18.00;99.90;;;;;;5051699;28;20814;-68
2022/06/20 11:39:53;;;;;;;2.37;2.00;;;17.60;99.90;;;;;;5052259;28;20767;-73
2022/06/20 11:42:57;;;;;;;2.17;2.00;;;17.40;99.90;;;;;;5052748;28;20401;-65
2022/06/20 11:45:45;;;;;;;3.27;2.70;;;17.20;99.90;;;;;;4988928;28;20525;-65
2022/06/20 11:48:24;;;;;;;2.63;2.03;;;16.90;99.90;;;;;;5031843;28;20442;-65
2022/06/20 11:51:13;;;;;;;8.20;2.40;;;17.00;99.90;;;;;;5032827;28;20413;-64
2022/06/20 11:53:53;;;;;;;2.70;2.47;;;16.90;99.90;;;;;;5003178;28;20417;-72
2022/06/20 11:57:01;;;;;;;2.50;2.30;;;16.80;99.90;;;;;;5031796;28;20402;-73
2022/06/20 11:59:43;;;;;;;2.83;2.50;;;16.80;99.90;;;;;;5031280;28;20464;-72
2022/06/20 12:02:33;;;;;;;4.67;2.40;;;16.30;99.90;;;;;;5032710;28;20410;-72
2022/06/20 12:05:17;;;;;;;3.70;2.70;;;16.20;99.90;;;;;;5032676;28;20755;-66
2022/06/20 12:07:55;;;;;;;5.73;4.10;;;16.50;99.90;;;;;;5030760;28;20576;-72
2022/06/20 12:10:43;;;;;;;2.50;1.30;;;17.10;99.90;;;;;;5036322;28;20402;-65
2022/06/20 12:14:02;;;;;;;1.47;1.37;;;18.10;99.90;;;;;;5055146;28;20429;-65
2022/06/20 12:16:56;;;;;;;2.47;1.20;;;19.00;99.90;;;;;;5012854;28;20537;-68
2022/06/20 12:25:58;;;;;;;1.90;1.10;;;21.80;99.90;;;;;;5054931;28;20486;-67
2022/06/20 12:28:40;;;;;;;3.70;1.33;;;22.30;99.90;;;;;;5050972;28;20429;-73
2022/06/20 12:31:08;;;;;;;1.20;0.93;;;22.70;99.10;;;;;;5055368;28;20925;-73
2022/06/20 12:33:40;;;;;;;1.00;0.80;;;23.50;97.00;;;;;;5055655;28;20801;-67
2022/06/20 12:36:36;;;;;;;2.13;1.03;;;23.30;95.10;;;;;;5055690;28;20416;-74
2022/06/20 12:39:21;;;;;;;1.13;1.03;;;23.30;95.60;;;;;;5055792;28;20429;-65
2022/06/20 12:41:52;;;;;;;1.10;1.00;;;23.50;88.70;;;;;;5055691;28;20408;-66
2022/06/20 12:44:45;;;;;;;2.20;1.40;;;23.40;78.40;;;;;;5055905;28;20405;-66
2022/06/20 12:47:31;;;;;;;1.60;1.10;;;23.00;76.10;;;;;;5037075;28;20413;-75
2022/06/20 12:50:31;;;;;;;3.60;1.43;;;22.70;72.70;;;;;;5037460;28;20810;-66
2022/06/20 12:53:10;;;;;;;1.63;1.33;;;22.70;69.30;;;;;;5055027;28;20766;-73
2022/06/20 12:55:52;;;;;;;4.60;1.20;;;22.20;62.60;;;;;;5055475;28;20455;-67
2022/06/20 12:58:29;;;;;;;1.70;1.30;;;22.30;60.90;;;;;;5054640;28;20825;-73
2022/06/20 13:00:58;;;;;;;1.70;1.47;;;22.50;66.10;;;;;;5037809;28;20406;-66
2022/06/20 13:03:41;;;;;;;1.17;1.07;;;22.40;60.40;;;;;;5055538;28;20405;-65
2022/06/20 13:06:31;;;;;;;1.67;1.33;;;22.40;60.20;;;;;;5055350;28;20408;-66
2022/06/20 13:09:34;;;;;;;3.00;1.77;;;21.40;46.70;;;;;;5055188;28;20568;-66
2022/06/20 13:12:29;;;;;;;4.60;1.70;;;21.70;60.70;;;;;;5036698;28;20413;-67
2022/06/20 13:15:36;;;;;;;2.20;1.80;;;21.20;45.80;;;;;;5055079;28;20398;-67
2022/06/20 13:18:32;;;;;;;4.47;1.70;;;20.40;50.40;;;;;;4990045;28;20550;-70
2022/06/20 13:21:19;;;;;;;2.30;1.67;;;19.80;57.20;;;;;;5054044;28;20478;-66
2022/06/20 13:23:47;;;;;;;2.80;1.43;;;19.10;53.40;;;;;;5055024;28;20405;-66
2022/06/20 13:26:39;;;;;;;2.17;1.50;;;18.50;52.00;;;;;;5054766;28;20500;-66
2022/06/20 13:29:32;;;;;;;1.57;1.47;;;17.90;54.50;;;;;;5036308;28;20436;-67
2022/06/20 13:32:14;;;;;;;1.83;1.23;;;17.40;74.50;;;;;;5054872;28;20475;-72
2022/06/20 13:34:46;;;;;;;7.20;1.57;;;17.00;87.90;;;;;;5054902;28;20408;-73
2022/06/20 13:37:48;;;;;;;3.40;1.50;;;16.70;94.50;;;;;;5054021;28;20543;-72
2022/06/20 13:40:25;;;;;;;2.30;1.70;;;16.60;94.50;;;;;;5054528;28;20543;-72
2022/06/20 13:43:13;;;;;;;3.40;1.80;;;16.70;99.90;;;;;;5054687;28;20458;-66
2022/06/20 13:45:47;;;;;;;1.90;1.70;;;16.40;99.90;;;;;;5054565;28;20963;-72
2022/06/20 13:48:41;;;;;;;2.30;2.10;;;16.20;99.90;;;;;;5053424;28;20503;-70
2022/06/20 13:51:21;;;;;;;2.13;1.40;;;16.00;99.90;;;;;;5040155;28;20422;-66
2022/06/20 13:54:13;;;;;;;2.27;2.13;;;15.80;99.90;;;;;;5054447;28;20413;-72
2022/06/20 13:57:00;;;;;;;1.70;1.60;;;15.60;99.90;;;;;;5053562;28;20456;-72
2022/06/20 13:59:50;;;;;;;2.43;1.63;;;15.70;99.90;;;;;;5054386;28;20417;-65
2022/06/20 14:03:03;;;;;;;1.90;1.70;;;15.60;99.90;;;;;;5054205;28;20408;-66
2022/06/20 14:05:34;;;;;;;1.50;1.40;;;15.50;99.90;;;;;;4993543;28;20923;-72